Time;durP1;ratioP1;P1;durP2;ratioP2;P2;SDS_P1;SDS_P2;PMS_P1;PMS_P2;Temp;Humidity;BMP_temperature;BMP_pressure;BME280_temperature;BME280_humidity;BME280_pressure;Samples;Min_cycle;Max_cycle;Signal;HPM_P1;HPM_P2
2023/06/26 00:02:19;;;;;;;;;;;;;;;19.77;100.00;99160.34;4992823;28;969;-69
2023/06/26 00:04:46;;;;;;;;;;;;;;;19.78;100.00;99167.50;4992200;28;831;-66
2023/06/26 00:07:14;;;;;;;;;;;;;;;19.85;100.00;99167.13;4992712;28;855;-65
2023/06/26 00:09:41;;;;;;;;;;;;;;;19.90;100.00;99169.25;4992628;28;878;-66
2023/06/26 00:12:08;;;;;;;;;;;;;;;19.97;100.00;99162.47;4992738;28;1363;-64
2023/06/26 00:14:35;;;;;;;;;;;;;;;19.96;100.00;99167.31;4992500;28;1918;-65
2023/06/26 00:17:02;;;;;;;;;;;;;;;19.96;100.00;99166.53;4992809;28;906;-65
2023/06/26 00:19:30;;;;;;;;;;;;;;;19.90;100.00;99171.28;4992478;28;888;-63
2023/06/26 00:21:57;;;;;;;;;;;;;;;19.97;100.00;99174.50;4992534;28;823;-66
2023/06/26 00:24:25;;;;;;;;;;;;;;;20.03;100.00;99168.97;4992406;28;874;-65
2023/06/26 00:26:52;;;;;;;;;;;;;;;20.01;100.00;99165.84;4992349;28;823;-65
2023/06/26 00:29:18;;;;;;;;;;;;;;;19.95;100.00;99162.97;4992388;28;815;-65
2023/06/26 00:31:45;;;;;;;;;;;;;;;19.90;100.00;99157.25;4992376;28;807;-65
2023/06/26 00:34:12;;;;;;;;;;;;;;;19.85;100.00;99163.56;4992596;28;1953;-65
2023/06/26 00:36:39;;;;;;;;;;;;;;;19.86;100.00;99154.63;4992184;28;807;-64
2023/06/26 00:39:06;;;;;;;;;;;;;;;19.94;100.00;99147.38;4992345;28;843;-65
2023/06/26 00:41:33;;;;;;;;;;;;;;;20.00;100.00;99150.31;4992440;28;815;-66
2023/06/26 00:44:01;;;;;;;;;;;;;;;20.04;100.00;99152.94;4992491;28;819;-66
2023/06/26 00:46:28;;;;;;;;;;;;;;;19.98;100.00;99145.16;4992150;28;815;-66
2023/06/26 00:48:57;;;;;;;;;;;;;;;19.93;100.00;99145.09;4992054;28;879;-66
2023/06/26 00:51:25;;;;;;;;;;;;;;;19.90;100.00;99141.19;4992120;28;1031;-70
2023/06/26 00:53:53;;;;;;;;;;;;;;;19.90;100.00;99138.41;4992148;28;1953;-66
2023/06/26 00:56:21;;;;;;;;;;;;;;;19.88;100.00;99129.69;4992247;28;866;-66
2023/06/26 00:58:48;;;;;;;;;;;;;;;19.84;100.00;99140.31;4992099;28;875;-65
2023/06/26 01:01:17;;;;;;;;;;;;;;;19.75;100.00;99129.97;4974587;28;1629;-65
2023/06/26 01:03:52;;;;;;;;;;;;;;;19.68;100.00;99123.97;4991943;28;871;-64
2023/06/26 01:06:22;;;;;;;;;;;;;;;19.66;100.00;99123.66;4991969;28;910;-66
2023/06/26 01:08:50;;;;;;;;;;;;;;;19.68;100.00;99115.53;4991908;28;862;-65
2023/06/26 01:11:17;;;;;;;;;;;;;;;19.64;100.00;99115.72;4991908;28;1422;-65
2023/06/26 01:13:45;;;;;;;;;;;;;;;19.64;100.00;99109.34;4991648;28;1918;-65
2023/06/26 01:16:15;;;;;;;;;;;;;;;19.63;100.00;99119.00;4994096;28;1113;-64
2023/06/26 01:18:42;;;;;;;;;;;;;;;19.57;100.00;99111.28;4994553;28;1300;-66
2023/06/26 01:21:11;;;;;;;;;;;;;;;19.58;100.00;99112.03;4995639;28;890;-65
2023/06/26 01:23:47;;;;;;;;;;;;;;;19.58;100.00;99112.03;4995769;28;925;-65
2023/06/26 01:26:19;;;;;;;;;;;;;;;19.58;100.00;99112.81;4995823;28;842;-65
2023/06/26 01:28:48;;;;;;;;;;;;;;;19.59;100.00;99119.97;4995463;28;863;-65
2023/06/26 01:31:16;;;;;;;;;;;;;;;19.57;100.00;99116.88;4978050;28;1209;-65
2023/06/26 01:33:43;;;;;;;;;;;;;;;19.54;100.00;99114.25;4995495;28;1911;-65
2023/06/26 01:36:10;;;;;;;;;;;;;;;19.50;100.00;99111.66;4995585;28;819;-65
2023/06/26 01:38:37;;;;;;;;;;;;;;;19.48;100.00;99116.19;4995496;28;819;-65
2023/06/26 01:41:05;;;;;;;;;;;;;;;19.49;100.00;99107.28;4995373;28;819;-64
2023/06/26 01:43:57;;;;;;;;;;;;;;;19.55;100.00;99113.03;4995359;28;834;-65
2023/06/26 01:46:24;;;;;;;;;;;;;;;19.53;100.00;99110.69;4979411;28;1126;-65
2023/06/26 01:48:57;;;;;;;;;;;;;;;19.51;100.00;99109.63;4995295;28;866;-65
2023/06/26 01:51:30;;;;;;;;;;;;;;;19.49;100.00;99107.28;4995464;28;843;-64
2023/06/26 01:53:58;;;;;;;;;;;;;;;19.47;100.00;99101.41;4995293;28;1960;-64
2023/06/26 01:56:27;;;;;;;;;;;;;;;19.49;100.00;99103.72;4995061;28;820;-64
2023/06/26 01:58:55;;;;;;;;;;;;;;;19.50;100.00;99100.44;4995195;28;822;-67
2023/06/26 02:01:22;;;;;;;;;;;;;;;19.53;100.00;99093.09;4994932;28;919;-65
2023/06/26 02:03:49;;;;;;;;;;;;;;;19.55;100.00;99096.19;4995075;28;822;-67
2023/06/26 02:06:16;;;;;;;;;;;;;;;19.59;100.00;99093.97;4994964;28;863;-63
2023/06/26 02:08:43;;;;;;;;;;;;;;;19.61;100.00;99093.47;4994966;28;935;-63
2023/06/26 02:11:10;;;;;;;;;;;;;;;19.62;100.00;99095.03;4986774;28;922;-64
2023/06/26 02:13:37;;;;;;;;;;;;;;;19.63;100.00;99091.78;4994543;28;1417;-66
2023/06/26 02:16:05;;;;;;;;;;;;;;;19.65;100.00;99088.47;4994701;28;1914;-64
2023/06/26 02:18:32;;;;;;;;;;;;;;;19.65;100.00;99094.06;4994779;28;839;-64
2023/06/26 02:21:00;;;;;;;;;;;;;;;19.63;100.00;99091.78;4994862;28;815;-65
2023/06/26 02:23:27;;;;;;;;;;;;;;;19.59;100.00;99091.94;4994648;28;890;-63
2023/06/26 02:25:54;;;;;;;;;;;;;;;19.59;100.00;99093.97;4993117;28;2372;-63
2023/06/26 02:28:21;;;;;;;;;;;;;;;19.57;100.00;99088.09;4993584;28;894;-64
2023/06/26 02:30:46;;;;;;;;;;;;;;;19.55;100.00;99090.59;4994453;28;807;-63
2023/06/26 02:33:13;;;;;;;;;;;;;;;19.50;100.00;99088.44;4994464;28;826;-64
2023/06/26 02:35:40;;;;;;;;;;;;;;;19.46;100.00;99074.66;4994600;28;1914;-63
2023/06/26 02:38:08;;;;;;;;;;;;;;;19.48;100.00;99074.94;4994319;28;858;-65
2023/06/26 02:40:35;;;;;;;;;;;;;;;19.49;100.00;99079.28;4994625;28;898;-64
2023/06/26 02:43:02;;;;;;;;;;;;;;;19.52;100.00;99074.72;4994185;28;896;-64
2023/06/26 02:45:29;;;;;;;;;;;;;;;19.57;100.00;99069.22;4994316;28;799;-64
2023/06/26 02:47:57;;;;;;;;;;;;;;;19.58;100.00;99067.19;4994197;28;925;-64
2023/06/26 02:50:24;;;;;;;;;;;;;;;19.61;100.00;99074.66;4994208;28;843;-64
2023/06/26 02:52:52;;;;;;;;;;;;;;;19.61;100.00;99066.25;4994070;28;784;-69
2023/06/26 02:55:20;;;;;;;;;;;;;;;19.63;100.00;99071.34;4993822;28;1890;-63
2023/06/26 02:57:47;;;;;;;;;;;;;;;19.69;100.00;99077.84;4994021;28;819;-64
2023/06/26 03:00:15;;;;;;;;;;;;;;;19.73;100.00;99070.81;4993962;28;894;-64
2023/06/26 03:02:42;;;;;;;;;;;;;;;19.79;100.00;99079.31;4993965;28;909;-63
2023/06/26 03:05:09;;;;;;;;;;;;;;;19.86;100.00;99069.75;4993913;28;875;-64
2023/06/26 03:07:36;;;;;;;;;;;;;;;19.91;100.00;99060.66;4993914;28;807;-66
2023/06/26 03:10:03;;;;;;;;;;;;;;;19.92;100.00;99062.97;4993718;28;913;-65
2023/06/26 03:12:30;;;;;;;;;;;;;;;19.96;100.00;99055.13;4993682;28;1181;-64
2023/06/26 03:14:57;;;;;;;;;;;;;;;19.98;100.00;99068.69;4993494;28;1975;-64
2023/06/26 03:17:24;;;;;;;;;;;;;;;19.99;100.00;99061.78;4993674;28;886;-64
2023/06/26 03:19:52;;;;;;;;;;;;;;;20.03;100.00;99067.22;4993879;28;897;-64
2023/06/26 03:22:18;;;;;;;;;;;;;;;20.07;100.00;99070.59;4993609;28;889;-64
2023/06/26 03:24:45;;;;;;;;;;;;;;;20.07;100.00;99067.78;4993561;28;831;-66
2023/06/26 03:27:12;;;;;;;;;;;;;;;20.07;100.00;99079.78;4993382;28;885;-64
2023/06/26 03:29:39;;;;;;;;;;;;;;;20.09;100.00;99070.88;4993462;28;819;-64
2023/06/26 03:32:06;;;;;;;;;;;;;;;20.10;100.00;99081.63;4993263;28;878;-64
2023/06/26 03:34:34;;;;;;;;;;;;;;;20.14;100.00;99073.78;4993318;28;1957;-64
2023/06/26 03:37:02;;;;;;;;;;;;;;;20.16;100.00;99081.69;4993234;28;838;-64
2023/06/26 03:39:29;;;;;;;;;;;;;;;20.21;100.00;99078.22;4993194;28;905;-65
2023/06/26 03:42:00;;;;;;;;;;;;;;;20.27;100.00;99081.91;4993403;28;902;-65
2023/06/26 03:44:27;;;;;;;;;;;;;;;20.34;100.00;99084.28;4993896;28;776;-64
2023/06/26 03:46:54;;;;;;;;;;;;;;;20.38;100.00;99087.66;4992975;28;843;-65
2023/06/26 03:49:21;;;;;;;;;;;;;;;20.40;100.00;99078.78;4993220;28;839;-65
2023/06/26 03:51:49;;;;;;;;;;;;;;;20.44;100.00;99084.97;4993870;28;783;-64
2023/06/26 03:54:15;;;;;;;;;;;;;;;20.50;100.00;99088.59;4993225;28;1950;-64
2023/06/26 03:56:43;;;;;;;;;;;;;;;20.63;100.00;99101.56;4993600;28;783;-65
2023/06/26 03:59:11;;;;;;;;;;;;;;;20.80;100.00;99100.56;4993352;28;910;-65
2023/06/26 04:01:38;;;;;;;;;;;;;;;21.00;100.00;99108.19;4993124;28;827;-66
2023/06/26 04:04:05;;;;;;;;;;;;;;;21.07;100.00;99112.63;4993167;28;894;-65
2023/06/26 04:06:33;;;;;;;;;;;;;;;21.06;100.00;99108.28;4992895;28;906;-64
2023/06/26 04:09:00;;;;;;;;;;;;;;;21.01;100.00;99118.16;4992777;28;831;-66
2023/06/26 04:11:27;;;;;;;;;;;;;;;21.04;100.00;99121.25;4992814;28;914;-65
2023/06/26 04:13:55;;;;;;;;;;;;;;;21.09;100.00;99126.19;4992471;28;1902;-65
2023/06/26 04:16:25;;;;;;;;;;;;;;;21.15;100.00;99124.22;4992588;28;871;-64
2023/06/26 04:18:52;;;;;;;;;;;;;;;21.24;100.00;99126.88;4992548;28;827;-65
2023/06/26 04:21:20;;;;;;;;;;;;;;;21.30;100.00;99118.53;4992458;28;921;-65
2023/06/26 04:23:47;;;;;;;;;;;;;;;21.40;100.00;99126.31;4992622;28;893;-65
2023/06/26 04:26:14;;;;;;;;;;;;;;;21.44;100.00;99125.34;4992607;28;895;-65
2023/06/26 04:28:43;;;;;;;;;;;;;;;21.48;100.00;99123.84;4992498;28;866;-65
2023/06/26 04:31:10;;;;;;;;;;;;;;;21.52;100.00;99130.03;4992328;28;822;-66
2023/06/26 04:33:37;;;;;;;;;;;;;;;21.55;100.00;99129.06;4992397;28;874;-65
2023/06/26 04:36:05;;;;;;;;;;;;;;;21.58;100.00;99124.50;4992244;28;1956;-65
2023/06/26 04:38:35;;;;;;;;;;;;;;;21.55;100.00;99126.25;4992277;28;879;-64
2023/06/26 04:41:02;;;;;;;;;;;;;;;21.56;100.00;99119.34;4992290;28;788;-64
2023/06/26 04:43:29;;;;;;;;;;;;;;;21.56;100.00;99127.03;4992229;28;910;-65
2023/06/26 04:45:56;;;;;;;;;;;;;;;21.59;100.00;99120.41;4992119;28;807;-65
2023/06/26 04:48:23;;;;;;;;;;;;;;;21.69;100.00;99123.84;4992246;28;897;-65
2023/06/26 04:50:53;;;;;;;;;;;;;;;21.61;100.00;99115.06;4974392;28;1177;-64
2023/06/26 04:53:21;;;;;;;;;;;;;;;21.68;100.00;99127.91;4992038;28;842;-65
2023/06/26 04:55:50;;;;;;;;;;;;;;;21.74;100.00;99123.91;4992054;28;1953;-65
2023/06/26 04:58:17;;;;;;;;;;;;;;;21.85;100.00;99122.44;4992083;28;802;-64
2023/06/26 05:00:45;;;;;;;;;;;;;;;21.91;100.00;99123.28;4992098;28;862;-65
2023/06/26 05:03:15;;;;;;;;;;;;;;;21.97;100.00;99133.31;4992045;28;1025;-65
2023/06/26 05:05:41;;;;;;;;;;;;;;;21.99;100.00;99130.00;4992135;28;783;-64
2023/06/26 05:08:15;;;;;;;;;;;;;;;22.00;100.00;99134.38;4992281;28;811;-66
2023/06/26 05:10:43;;;;;;;;;;;;;;;22.06;100.00;99131.59;4991979;28;787;-66
2023/06/26 05:13:10;;;;;;;;;;;;;;;22.01;100.00;99136.66;4991982;28;1366;-65
2023/06/26 05:15:37;;;;;;;;;;;;;;;22.10;100.00;99138.53;4992067;28;1906;-65
2023/06/26 05:18:05;;;;;;;;;;;;;;;22.14;100.00;99141.13;4974593;28;1472;-65
2023/06/26 05:20:34;;;;;;;;;;;;;;;22.06;100.00;99135.16;4991756;28;858;-66
2023/06/26 05:23:02;;;;;;;;;;;;;;;21.97;100.00;99135.34;4991866;28;803;-65
2023/06/26 05:25:29;;;;;;;;;;;;;;;21.99;100.00;99133.56;4991790;28;907;-65
2023/06/26 05:27:58;;;;;;;;;;;;;;;22.12;100.00;99133.19;4991816;28;784;-66
2023/06/26 05:30:26;;;;;;;;;;;;;;;22.17;100.00;99140.16;4991884;28;882;-65
2023/06/26 05:32:53;;;;;;;;;;;;;;;22.12;100.00;99150.06;4991803;28;807;-64
2023/06/26 05:35:23;;;;;;;;;;;;;;;22.04;100.00;99149.00;4991784;28;1887;-64
2023/06/26 05:37:51;;;;;;;;;;;;;;;21.98;100.00;99151.75;4991773;28;815;-64
2023/06/26 05:40:21;;;;;;;;;;;;;;;22.07;100.00;99155.66;4992415;28;772;-65
2023/06/26 05:42:48;;;;;;;;;;;;;;;22.06;100.00;99154.88;4991782;28;820;-66
2023/06/26 05:45:15;;;;;;;;;;;;;;;21.93;100.00;99162.94;4991652;28;882;-65
2023/06/26 05:47:42;;;;;;;;;;;;;;;21.74;100.00;99168.09;4991947;28;844;-65
2023/06/26 05:50:10;;;;;;;;;;;;;;;21.59;100.00;99174.63;4991580;28;878;-65
2023/06/26 05:52:38;;;;;;;;;;;;;;;21.52;100.00;99171.44;4991492;28;835;-65
2023/06/26 05:55:06;;;;;;;;;;;;;;;21.43;100.00;99171.59;4991532;28;1953;-66
2023/06/26 05:57:34;;;;;;;;;;;;;;;21.34;100.00;99173.25;4991641;28;881;-65
2023/06/26 06:00:03;;;;;;;;;;;;;;;21.23;100.00;99169.53;4991560;28;882;-65
2023/06/26 06:02:30;;;;;;;;;;;;;;;21.01;100.00;99165.91;4992701;28;843;-64
2023/06/26 06:04:57;;;;;;;;;;;;;;;20.62;100.00;99178.63;4994836;28;894;-65
2023/06/26 06:07:24;;;;;;;;;;;;;;;20.07;100.00;99182.81;4995025;28;878;-62
2023/06/26 06:09:51;;;;;;;;;;;;;;;19.53;100.00;99194.00;4994927;28;823;-62
2023/06/26 06:12:18;;;;;;;;;;;;;;;19.30;100.00;99195.56;4994988;28;1285;-67
2023/06/26 06:14:45;;;;;;;;;;;;;;;19.14;100.00;99188.38;4995108;28;1969;-65
2023/06/26 06:17:12;;;;;;;;;;;;;;;19.06;100.00;99187.16;4994837;28;827;-69
2023/06/26 06:22:42;;;;;;;;;;;;;;;19.05;100.00;99185.59;4979002;28;1033;-71
2023/06/26 06:31:18;;;;;;;;;;;;;;;19.14;100.00;99205.94;5406426;23;1616;-72
2023/06/26 06:33:45;;;;;;;;;;;;;;;19.33;100.00;99209.41;5033784;28;811;-72
2023/06/26 06:36:54;;;;;;;;;;;;;;;;;;;;;
2023/06/26 06:39:33;;;;;;;;;;;;;;;19.20;100.00;99210.88;5033328;28;1043;-73
2023/06/26 06:45:02;;;;;;;;;;;;;;;19.37;100.00;99209.19;5033625;28;610;-71
2023/06/26 06:47:35;;;;;;;;;;;;;;;19.34;100.00;99196.94;5033606;28;850;-71
2023/06/26 06:50:07;;;;;;;;;;;;;;;19.25;100.00;99205.41;5033462;28;820;-71
2023/06/26 07:02:19;;;;;;;;;;;;;;;19.23;100.00;99193.13;5033599;28;669;-72
2023/06/26 07:05:09;;;;;;;;;;;;;;;19.16;100.00;99206.25;5015749;28;1243;-73
2023/06/26 07:07:37;;;;;;;;;;;;;;;19.11;100.00;99206.09;5033204;28;905;-73
2023/06/26 07:10:32;;;;;;;;;;;;;;;19.08;100.00;99207.84;5032496;28;1020;-74
2023/06/26 07:12:59;;;;;;;;;;;;;;;19.23;100.00;99224.72;5015098;28;1299;-70
2023/06/26 07:15:26;;;;;;;;;;;;;;;19.21;100.00;99227.22;5032928;28;1893;-68
2023/06/26 07:17:53;;;;;;;;;;;;;;;19.31;100.00;99230.72;5033017;28;855;-66
2023/06/26 07:20:19;;;;;;;;;;;;;;;19.55;100.00;99239.13;5032807;28;877;-66
2023/06/26 07:22:47;;;;;;;;;;;;;;;19.57;100.00;99243.00;5032854;28;822;-65
2023/06/26 07:25:13;;;;;;;;;;;;;;;19.65;100.00;99232.22;5032925;28;885;-65
2023/06/26 07:27:41;;;;;;;;;;;;;;;19.63;100.00;99239.53;5032770;28;807;-65
2023/06/26 07:30:11;;;;;;;;;;;;;;;19.74;100.00;99239.81;5033034;28;916;-64
2023/06/26 07:32:38;;;;;;;;;;;;;;;19.84;100.00;99240.50;5032578;28;1387;-64
2023/06/26 07:35:05;;;;;;;;;;;;;;;19.88;100.00;99246.69;5032589;28;1968;-63
2023/06/26 07:37:32;;;;;;;;;;;;;;;19.95;100.00;99252.72;5014861;28;1287;-63
2023/06/26 07:39:59;;;;;;;;;;;;;;;19.93;100.00;99243.25;5032557;28;886;-63
2023/06/26 07:42:27;;;;;;;;;;;;;;;20.14;100.00;99246.94;5032525;28;843;-63
2023/06/26 07:44:54;;;;;;;;;;;;;;;20.22;100.00;99245.28;5033095;28;788;-63
2023/06/26 07:47:22;;;;;;;;;;;;;;;20.39;100.00;99231.56;5014773;28;1161;-63
2023/06/26 07:49:49;;;;;;;;;;;;;;;21.03;100.00;99240.53;5032513;28;838;-63
2023/06/26 07:52:16;;;;;;;;;;;;;;;21.72;100.00;99238.13;5032872;28;756;-63
2023/06/26 07:54:43;;;;;;;;;;;;;;;22.06;100.00;99233.66;5032554;28;1951;-63
2023/06/26 07:57:11;;;;;;;;;;;;;;;22.11;100.00;99235.00;5014790;28;1169;-62
2023/06/26 07:59:38;;;;;;;;;;;;;;;22.12;100.00;99234.47;5032263;28;875;-62
2023/06/26 08:02:06;;;;;;;;;;;;;;;22.43;100.00;99239.44;5032310;28;823;-62
2023/06/26 08:04:33;;;;;;;;;;;;;;;22.90;100.00;99232.88;5032247;28;800;-62
2023/06/26 08:07:01;;;;;;;;;;;;;;;22.96;100.00;99231.66;5032036;28;809;-61
2023/06/26 08:09:28;;;;;;;;;;;;;;;23.02;100.00;99240.94;5032349;28;870;-61
2023/06/26 08:11:56;;;;;;;;;;;;;;;23.07;100.00;99244.31;5032044;28;798;-61
2023/06/26 08:14:23;;;;;;;;;;;;;;;23.24;100.00;99245.19;5031924;28;1894;-61
2023/06/26 08:16:50;;;;;;;;;;;;;;;23.24;100.00;99245.94;5032028;28;881;-61
2023/06/26 08:19:17;;;;;;;;;;;;;;;23.42;100.00;99244.75;5031850;28;869;-62
2023/06/26 08:21:45;;;;;;;;;;;;;;;23.44;100.00;99249.88;5014098;28;1314;-60
2023/06/26 08:24:13;;;;;;;;;;;;;;;23.26;100.00;99253.91;5031600;28;798;-62
2023/06/26 08:26:40;;;;;;;;;;;;;;;23.20;100.00;99258.72;5031229;28;847;-60
2023/06/26 08:29:09;;;;;;;;;;;;;;;23.29;100.00;99249.28;5031722;28;827;-60
2023/06/26 08:31:37;;;;;;;;;;;;;;;23.79;100.00;99255.22;5031498;28;1439;-60
2023/06/26 08:34:04;;;;;;;;;;;;;;;24.46;100.00;99257.41;5031823;28;1895;-61
2023/06/26 08:36:31;;;;;;;;;;;;;;;24.79;100.00;99253.09;5031945;28;901;-60
2023/06/26 08:38:58;;;;;;;;;;;;;;;25.01;100.00;99254.34;5031669;28;866;-60
2023/06/26 08:41:25;;;;;;;;;;;;;;;25.07;100.00;99260.75;5031550;28;905;-60
2023/06/26 08:43:52;;;;;;;;;;;;;;;25.01;100.00;99255.13;5031669;28;842;-60
2023/06/26 08:46:19;;;;;;;;;;;;;;;25.19;100.00;99270.75;5031570;28;886;-60
2023/06/26 08:48:54;;;;;;;;;;;;;;;25.20;100.00;99265.88;5031380;28;827;-60
2023/06/26 08:51:24;;;;;;;;;;;;;;;25.54;100.00;99266.59;5031494;28;951;-60
2023/06/26 08:54:02;;;;;;;;;;;;;;;25.51;100.00;99264.03;5032154;28;842;-60
2023/06/26 08:56:32;;;;;;;;;;;;;;;25.81;100.00;99267.00;5031440;28;865;-61
2023/06/26 08:58:59;;;;;;;;;;;;;;;25.51;100.00;99269.69;5031383;28;932;-61
2023/06/26 09:01:26;;;;;;;;;;;;;;;25.41;100.00;99260.69;5031568;28;835;-62
2023/06/26 09:03:54;;;;;;;;;;;;;;;25.33;100.00;99265.34;5031298;28;846;-63
2023/06/26 09:06:22;;;;;;;;;;;;;;;25.01;100.00;99271.31;5031359;28;902;-62
2023/06/26 09:08:49;;;;;;;;;;;;;;;24.72;100.00;99275.44;5031330;28;974;-63
2023/06/26 09:11:16;;;;;;;;;;;;;;;24.56;100.00;99277.75;5031230;28;898;-63
2023/06/26 09:13:44;;;;;;;;;;;;;;;24.69;100.00;99285.72;5031319;28;799;-63
2023/06/26 09:16:11;;;;;;;;;;;;;;;24.72;100.00;99290.31;5031098;28;1890;-63
2023/06/26 09:18:40;;;;;;;;;;;;;;;24.69;100.00;99290.56;5031186;28;830;-64
2023/06/26 09:21:11;;;;;;;;;;;;;;;24.76;100.00;99284.44;5031001;28;1008;-64
2023/06/26 09:23:39;;;;;;;;;;;;;;;24.77;100.00;99292.41;5013685;28;1251;-63
2023/06/26 09:26:07;;;;;;;;;;;;;;;24.98;100.00;99284.41;5031216;28;881;-64
2023/06/26 09:28:34;;;;;;;;;;;;;;;25.17;100.00;99292.34;5031165;28;803;-65
2023/06/26 09:31:03;;;;;;;;;;;;;;;25.17;100.00;99293.13;5030959;28;1349;-65
2023/06/26 09:33:38;;;;;;;;;;;;;;;25.29;100.00;99302.41;5031042;28;839;-65
2023/06/26 09:36:12;;;;;;;;;;;;;;;25.54;100.00;99297.72;5031546;28;1914;-65
2023/06/26 09:38:39;;;;;;;;;;;;;;;25.62;100.00;99301.53;5034896;28;830;-65
2023/06/26 10:12:13;;;;;;;;;;;;;;;27.89;100.00;99284.41;5310979;22;1682;-58
2023/06/26 10:17:45;;;;;;;;;;;;;;;28.10;100.00;99282.56;5094410;28;635;-58
2023/06/26 10:23:15;;;;;;;;;;;;;;;28.16;100.00;99271.13;5094292;28;731;-58
2023/06/26 10:25:44;;;;;;;;;;;;;;;28.00;100.00;99283.50;5094237;28;881;-58
2023/06/26 10:28:12;;;;;;;;;;;;;;;28.16;100.00;99282.47;5094068;28;794;-58
2023/06/26 10:30:40;;;;;;;;;;;;;;;27.88;100.00;99286.47;5094114;28;873;-58
2023/06/26 10:33:08;;;;;;;;;;;;;;;27.39;100.00;99280.81;5094009;28;850;-59
2023/06/26 10:35:41;;;;;;;;;;;;;;;26.71;100.00;99277.81;5075767;28;1944;-59
2023/06/26 10:38:08;;;;;;;;;;;;;;;26.45;100.00;99279.00;5093909;28;806;-59
2023/06/26 10:40:44;;;;;;;;;;;;;;;26.16;100.00;99282.53;5094025;28;822;-59
2023/06/26 10:43:12;;;;;;;;;;;;;;;25.92;100.00;99266.19;5094145;28;859;-58
2023/06/26 10:45:54;;;;;;;;;;;;;;;25.94;100.00;99277.78;5093825;28;802;-59
2023/06/26 10:48:22;;;;;;;;;;;;;;;25.74;100.00;99279.63;5092980;28;842;-58
2023/06/26 10:50:50;;;;;;;;;;;;;;;25.64;100.00;99275.56;5093648;28;834;-58
2023/06/26 10:53:24;;;;;;;;;;;;;;;25.60;100.00;99275.06;5093728;28;865;-59
2023/06/26 10:56:01;;;;;;;;;;;;;;;25.45;100.00;99267.66;5093451;28;1893;-59
2023/06/26 10:58:31;;;;;;;;;;;;;;;25.56;100.00;99272.50;5075747;28;871;-59
2023/06/26 11:01:13;;;;;;;;;;;;;;;25.78;100.00;99274.47;5093567;28;822;-59
2023/06/26 11:06:46;;;;;;;;;;;;;;;25.43;100.00;99260.97;5093501;28;672;-58
2023/06/26 11:09:15;;;;;;;;;;;;;;;25.57;100.00;99253.47;5093540;28;873;-59
2023/06/26 11:11:58;;;;;;;;;;;;;;;25.49;100.00;99258.88;5093279;28;1378;-59
2023/06/26 11:14:29;;;;;;;;;;;;;;;25.59;100.00;99250.88;5093359;28;1917;-58
2023/06/26 11:16:57;;;;;;;;;;;;;;;25.83;100.00;99245.38;5093152;28;881;-58
2023/06/26 11:22:28;;;;;;;;;;;;;;;26.22;100.00;99244.41;5093205;28;703;-58
2023/06/26 11:27:57;;;;;;;;;;;;;;;27.07;100.00;99235.22;5093077;28;695;-58
2023/06/26 11:30:25;;;;;;;;;;;;;;;27.22;100.00;99232.00;5092919;28;873;-58
2023/06/26 11:32:52;;;;;;;;;;;;;;;27.57;100.00;99238.81;5092776;28;838;-58
2023/06/26 11:35:30;;;;;;;;;;;;;;;27.68;100.00;99235.88;5092830;28;1890;-59
2023/06/26 11:38:03;;;;;;;;;;;;;;;27.80;100.00;99234.44;5092970;28;861;-58
2023/06/26 11:40:31;;;;;;;;;;;;;;;28.59;100.00;99224.00;5092627;28;965;-58
2023/06/26 11:42:59;;;;;;;;;;;;;;;29.39;100.00;99224.91;5092644;28;809;-58
2023/06/26 11:45:28;;;;;;;;;;;;;;;29.36;100.00;99233.75;5092632;28;869;-58
2023/06/26 11:47:56;;;;;;;;;;;;;;;29.04;100.00;99234.59;5092575;28;865;-58
2023/06/26 11:50:24;;;;;;;;;;;;;;;29.10;100.00;99232.44;5092722;28;869;-58
2023/06/26 11:52:55;;;;;;;;;;;;;;;29.20;100.00;99236.38;5092521;28;810;-59
2023/06/26 11:55:23;;;;;;;;;;;;;;;28.69;100.00;99230.81;5092623;28;1894;-59
2023/06/26 11:57:50;;;;;;;;;;;;;;;28.51;100.00;99235.25;5092451;28;850;-58
2023/06/26 12:00:18;;;;;;;;;;;;;;;28.75;100.00;99242.09;5092313;28;845;-58
2023/06/26 12:05:48;;;;;;;;;;;;;;;28.67;100.00;99236.28;5092347;28;675;-59
2023/06/26 12:08:15;;;;;;;;;;;;;;;29.60;100.00;99232.78;5092167;28;1095;-58
2023/06/26 12:10:42;;;;;;;;;;;;;;;29.41;100.00;99232.91;5092100;28;947;-58
2023/06/26 12:22:18;;;;;;;;;;;;;;;29.43;100.00;99250.19;5092082;28;675;-58
2023/06/26 12:24:45;;;;;;;;;;;;;;;28.83;100.00;99246.59;5091936;28;872;-57
2023/06/26 12:27:14;;;;;;;;;;;;;;;28.70;100.00;99241.66;5091943;28;834;-58
2023/06/26 12:29:41;;;;;;;;;;;;;;;28.29;100.00;99259.06;5091872;28;881;-58
2023/06/26 12:32:11;;;;;;;;;;;;;;;27.70;100.00;99253.13;5091759;28;919;-58
2023/06/26 12:34:39;;;;;;;;;;;;;;;27.27;100.00;99257.50;5091767;28;1889;-58
2023/06/26 12:37:09;;;;;;;;;;;;;;;27.22;100.00;99252.63;5091807;28;914;-57
2023/06/26 12:39:49;;;;;;;;;;;;;;;27.38;100.00;99247.31;5091651;28;823;-57
2023/06/26 12:42:18;;;;;;;;;;;;;;;27.43;100.00;99252.16;5091749;28;857;-58
2023/06/26 12:44:45;;;;;;;;;;;;;;;27.49;100.00;99252.88;5091705;28;837;-58
2023/06/26 12:53:19;;;;;;;;;;;;;;;28.04;100.00;99256.31;5091745;28;644;-57
2023/06/26 12:55:46;;;;;;;;;;;;;;;28.01;100.00;99254.53;5091522;28;1910;-57
2023/06/26 13:01:19;;;;;;;;;;;;;;;28.42;100.00;99256.28;5091611;28;664;-60
2023/06/26 13:09:52;;;;;;;;;;;;;;;28.12;100.00;99261.38;5091467;28;949;-57
2023/06/26 13:15:22;;;;;;;;;;;;;;;27.92;100.00;99271.22;5095612;28;1984;-57
2023/06/26 13:20:51;;;;;;;;;;;;;;;28.54;100.00;99253.28;5095525;28;629;-57
2023/06/26 13:23:19;;;;;;;;;;;;;;;28.76;100.00;99255.75;5077071;28;818;-57
2023/06/26 13:31:51;;;;;;;;;;;;;;;27.83;100.00;99258.91;5095330;28;672;-57
2023/06/26 13:34:23;;;;;;;;;;;;;;;27.69;100.00;99263.69;5095389;28;1890;-57
2023/06/26 13:36:50;;;;;;;;;;;;;;;27.38;100.00;99267.94;5095157;28;837;-58
2023/06/26 13:39:16;;;;;;;;;;;;;;;27.23;100.00;99261.94;5095050;28;833;-57
2023/06/26 13:41:43;;;;;;;;;;;;;;;27.13;100.00;99261.47;5094959;28;882;-57
2023/06/26 13:47:14;;;;;;;;;;;;;;;26.87;100.00;99259.16;5095028;28;620;-58
2023/06/26 13:49:41;;;;;;;;;;;;;;;26.82;100.00;99265.63;5095112;28;889;-57
2023/06/26 13:55:11;;;;;;;;;;;;;;;26.66;100.00;99262.41;5094757;28;1890;-57
2023/06/26 13:57:41;;;;;;;;;;;;;;;26.72;100.00;99255.94;5094732;28;880;-57
2023/06/26 14:00:09;;;;;;;;;;;;;;;26.74;100.00;99259.00;5095064;28;1012;-57
2023/06/26 14:02:36;;;;;;;;;;;;;;;26.87;100.00;99257.06;5094633;28;821;-57
2023/06/26 14:05:04;;;;;;;;;;;;;;;26.85;100.00;99262.50;5094844;28;873;-57
2023/06/26 14:07:31;;;;;;;;;;;;;;;26.82;100.00;99248.59;5094366;28;1052;-57
2023/06/26 14:13:00;;;;;;;;;;;;;;;26.98;100.00;99249.75;5094305;28;1284;-57
2023/06/26 14:15:27;;;;;;;;;;;;;;;27.04;100.00;99254.06;5094422;28;1971;-57
2023/06/26 14:17:55;;;;;;;;;;;;;;;27.14;100.00;99257.34;5094547;28;877;-57
2023/06/26 14:20:22;;;;;;;;;;;;;;;27.26;100.00;99249.50;5094235;28;829;-57
2023/06/26 14:25:52;;;;;;;;;;;;;;;27.27;100.00;99254.66;5094336;28;675;-57
2023/06/26 14:28:19;;;;;;;;;;;;;;;27.20;100.00;99255.19;5094146;28;798;-57
2023/06/26 14:30:46;;;;;;;;;;;;;;;27.19;100.00;99252.91;5094120;28;798;-57
2023/06/26 14:33:13;;;;;;;;;;;;;;;27.42;100.00;99247.78;5094070;28;842;-57
2023/06/26 14:38:43;;;;;;;;;;;;;;;28.79;100.00;99239.72;5093986;28;624;-57
2023/06/26 14:41:10;;;;;;;;;;;;;;;29.04;100.00;99246.75;5075766;28;1195;-57
2023/06/26 14:43:37;;;;;;;;;;;;;;;28.92;100.00;99242.56;5093911;28;892;-57
2023/06/26 14:46:04;;;;;;;;;;;;;;;28.79;100.00;99237.63;5093777;28;826;-57
2023/06/26 14:48:31;;;;;;;;;;;;;;;28.58;100.00;99228.94;5093656;28;810;-57
2023/06/26 14:51:00;;;;;;;;;;;;;;;28.65;100.00;99236.06;5093708;28;869;-57
2023/06/26 14:53:26;;;;;;;;;;;;;;;28.74;100.00;99234.88;5093692;28;885;-57
2023/06/26 14:55:54;;;;;;;;;;;;;;;28.69;100.00;99231.56;5093541;28;1941;-57
2023/06/26 14:58:21;;;;;;;;;;;;;;;28.66;100.00;99231.91;5093625;28;802;-57
2023/06/26 15:03:51;;;;;;;;;;;;;;;29.70;100.00;99223.25;5093506;28;846;-57
2023/06/26 15:06:18;;;;;;;;;;;;;;;29.51;100.00;99223.38;5093212;28;906;-58
2023/06/26 15:08:45;;;;;;;;;;;;;;;28.90;100.00;99226.03;5075173;28;1338;-57